createdAt,value
2023-01-30T00:02:19.936Z,100732.25
2023-01-30T00:04:50.058Z,100731.59
2023-01-30T00:07:20.070Z,100722.59
2023-01-30T00:09:50.112Z,100711.41
2023-01-30T00:12:20.085Z,100700.50
2023-01-30T00:14:50.176Z,100692.34
2023-01-30T00:17:22.802Z,100684.91
2023-01-30T00:19:52.837Z,100667.03
2023-01-30T00:22:22.891Z,100662.31
2023-01-30T00:24:52.955Z,100666.59
2023-01-30T00:27:23.264Z,100667.44
2023-01-30T00:32:46.110Z,100642.78
2023-01-30T00:35:16.315Z,100620.59
2023-01-30T00:37:46.460Z,100613.47
2023-01-30T00:40:18.738Z,100594.00
2023-01-30T00:43:01.413Z,100593.16
2023-01-30T00:45:43.874Z,100573.06
2023-01-30T00:48:16.602Z,100574.28
2023-01-30T00:50:46.677Z,100541.34
2023-01-30T00:53:18.211Z,100527.81
2023-01-30T00:55:48.606Z,100538.19
2023-01-30T00:58:18.964Z,100524.59
2023-01-30T01:00:49.360Z,100502.06
2023-01-30T01:03:22.554Z,100506.44
2023-01-30T01:05:52.607Z,100513.03
2023-01-30T01:08:22.937Z,100513.84
2023-01-30T01:10:52.909Z,100523.97
2023-01-30T01:13:22.945Z,100525.31
2023-01-30T01:15:53.435Z,100505.97
2023-01-30T01:18:26.066Z,100509.72
2023-01-30T01:20:56.075Z,100503.44
2023-01-30T01:23:26.044Z,100472.09
2023-01-30T01:25:56.062Z,100435.25
2023-01-30T01:28:25.968Z,100437.75
2023-01-30T01:30:56.049Z,100438.66
2023-01-30T01:33:29.594Z,100441.75
2023-01-30T01:36:02.574Z,100434.38
2023-01-30T01:38:33.825Z,100436.66
2023-01-30T01:41:06.252Z,100433.41
2023-01-30T01:43:40.219Z,100430.47
2023-01-30T01:46:17.855Z,100434.03
2023-01-30T01:48:55.028Z,100453.72
2023-01-30T01:51:32.548Z,100455.66
2023-01-30T01:54:06.697Z,100447.19
2023-01-30T01:56:39.138Z,100451.84
2023-01-30T01:59:15.960Z,100437.00
2023-01-30T02:01:48.914Z,100430.22
2023-01-30T02:04:41.631Z,100416.41
2023-01-30T02:07:12.309Z,100403.81
2023-01-30T02:09:44.988Z,100394.56
2023-01-30T02:12:17.549Z,100363.91
2023-01-30T02:14:48.323Z,100355.19
2023-01-30T02:17:19.447Z,100357.47
2023-01-30T02:20:00.370Z,100359.09
2023-01-30T02:23:02.992Z,100346.78
2023-01-30T02:26:04.311Z,100326.31
2023-01-30T02:29:19.071Z,100312.25
2023-01-30T02:31:57.182Z,100315.00
2023-01-30T02:34:45.231Z,100301.78
2023-01-30T02:37:27.714Z,100299.44
2023-01-30T02:40:13.817Z,100309.91
2023-01-30T02:42:52.655Z,100307.28
2023-01-30T02:45:27.234Z,100305.16
2023-01-30T02:48:05.144Z,100304.66
2023-01-30T02:50:41.881Z,100279.13
2023-01-30T02:53:12.975Z,100272.72
2023-01-30T02:55:45.151Z,100269.03
2023-01-30T02:58:16.355Z,100263.72
2023-01-30T03:01:04.325Z,100251.47
2023-01-30T03:04:00.868Z,100258.09
2023-01-30T03:06:41.670Z,100248.38
2023-01-30T03:09:21.236Z,100235.78
2023-01-30T03:12:00.585Z,100245.91
2023-01-30T03:14:37.006Z,100227.97
2023-01-30T03:17:08.927Z,100226.53
2023-01-30T03:19:41.686Z,100213.25
2023-01-30T03:22:12.283Z,100213.53
2023-01-30T03:24:43.222Z,100225.88
2023-01-30T03:27:14.559Z,100217.09
2023-01-30T03:29:45.066Z,100214.97
2023-01-30T03:32:15.054Z,100205.81
2023-01-30T03:34:47.899Z,100213.66
2023-01-30T03:37:18.184Z,100217.72
2023-01-30T03:39:48.199Z,100212.97
2023-01-30T03:42:18.619Z,100207.97
2023-01-30T03:44:48.839Z,100209.06
2023-01-30T03:47:18.938Z,100202.31
2023-01-30T03:49:53.126Z,100199.59
2023-01-30T03:52:23.117Z,100184.84
2023-01-30T03:54:53.323Z,100180.31
2023-01-30T03:57:23.377Z,100175.81
2023-01-30T03:59:53.454Z,100175.88
2023-01-30T04:02:23.587Z,100153.19
2023-01-30T04:04:56.841Z,100162.00
2023-01-30T04:07:26.914Z,100157.59
2023-01-30T04:09:57.107Z,100148.22
2023-01-30T04:12:28.073Z,100156.53
2023-01-30T04:15:01.821Z,100149.78
2023-01-30T04:18:07.690Z,100131.09
2023-01-30T04:20:57.367Z,100119.47
2023-01-30T04:23:34.323Z,100126.59
2023-01-30T04:26:10.410Z,100126.34
2023-01-30T04:28:42.270Z,100125.28
2023-01-30T04:31:12.457Z,100123.94
2023-01-30T04:34:00.741Z,100121.09
2023-01-30T04:36:33.423Z,100108.59
2023-01-30T04:39:03.642Z,100117.88
2023-01-30T04:41:35.212Z,100111.94
2023-01-30T04:44:05.929Z,100095.66
2023-01-30T04:46:42.165Z,100086.75
2023-01-30T04:49:15.201Z,100081.72
2023-01-30T04:51:49.468Z,100087.78
2023-01-30T04:54:19.389Z,100079.94
2023-01-30T04:56:49.378Z,100083.97
2023-01-30T04:59:19.424Z,100075.88
2023-01-30T05:01:51.470Z,100076.72
2023-01-30T05:04:21.550Z,100065.09
2023-01-30T05:06:54.135Z,100057.34
2023-01-30T05:09:24.154Z,100059.84
2023-01-30T05:11:54.102Z,100046.44
2023-01-30T05:14:24.083Z,100049.41
2023-01-30T05:16:54.062Z,100049.06
2023-01-30T05:19:24.023Z,100036.59
2023-01-30T05:21:56.627Z,100037.66
2023-01-30T05:24:26.626Z,100027.19
2023-01-30T05:26:56.549Z,100029.47
2023-01-30T05:29:26.843Z,100018.78
2023-01-30T05:31:56.776Z,100019.47
2023-01-30T05:34:26.734Z,100014.38
2023-01-30T05:36:59.587Z,100015.09
2023-01-30T05:39:29.502Z,100016.75
2023-01-30T05:41:59.487Z,100012.09
2023-01-30T05:44:29.558Z,100002.34
2023-01-30T05:46:59.566Z,99990.09
2023-01-30T05:49:29.468Z,99996.91
2023-01-30T05:52:02.226Z,99999.97
2023-01-30T05:54:32.205Z,99984.97
2023-01-30T05:57:02.188Z,99982.75
2023-01-30T05:59:32.239Z,99967.44
2023-01-30T06:02:02.215Z,99970.16
2023-01-30T06:04:38.349Z,99962.78
2023-01-30T06:07:11.050Z,99967.06
2023-01-30T06:09:40.917Z,99979.22
2023-01-30T06:12:11.674Z,99972.53
2023-01-30T06:14:41.772Z,99964.69
2023-01-30T06:17:11.719Z,99968.00
2023-01-30T06:19:41.717Z,99967.88
2023-01-30T06:22:14.364Z,99964.19
2023-01-30T06:24:44.331Z,99961.78
2023-01-30T06:27:14.556Z,99964.28
2023-01-30T06:29:44.497Z,99967.34
2023-01-30T06:32:15.091Z,99967.22
2023-01-30T06:34:45.074Z,99964.09
2023-01-30T06:37:17.902Z,99972.75
2023-01-30T06:39:47.852Z,99968.53
2023-01-30T06:42:17.777Z,99965.66
2023-01-30T06:44:47.781Z,99963.63
2023-01-30T06:47:17.701Z,99953.97
2023-01-30T06:49:49.499Z,99954.88
2023-01-30T06:52:22.061Z,99959.66
2023-01-30T06:54:51.967Z,99956.91
2023-01-30T06:57:21.976Z,99944.03
2023-01-30T06:59:52.087Z,99945.69
2023-01-30T07:02:22.031Z,99940.78
2023-01-30T07:04:52.000Z,99934.31
2023-01-30T07:07:24.623Z,99939.28
2023-01-30T07:10:06.829Z,99926.88
2023-01-30T07:12:38.408Z,99927.06
2023-01-30T07:15:09.963Z,99930.44
2023-01-30T07:17:39.942Z,99926.06
2023-01-30T07:20:11.465Z,99914.91
2023-01-30T07:22:44.114Z,99909.41
2023-01-30T07:25:14.048Z,99902.94
2023-01-30T07:27:44.077Z,99897.44
2023-01-30T07:30:15.513Z,99893.91
2023-01-30T07:32:45.481Z,99899.84
2023-01-30T07:35:15.505Z,99899.28
2023-01-30T07:37:50.865Z,99897.78
2023-01-30T07:40:25.230Z,99907.50
2023-01-30T07:43:02.703Z,99911.06
2023-01-30T07:45:37.299Z,99909.97
2023-01-30T07:48:07.274Z,99915.34
2023-01-30T07:50:37.307Z,99908.19
2023-01-30T07:53:11.944Z,99915.50
2023-01-30T07:55:43.086Z,99929.59
2023-01-30T07:58:16.657Z,99932.41
2023-01-30T08:00:46.934Z,99919.41
2023-01-30T08:03:18.588Z,99928.22
2023-01-30T08:05:50.136Z,99922.28
2023-01-30T08:08:23.247Z,99926.41
2023-01-30T08:10:53.280Z,99925.19
2023-01-30T08:13:23.182Z,99926.97
2023-01-30T08:15:55.477Z,99924.47
2023-01-30T08:18:25.405Z,99918.34
2023-01-30T08:20:55.346Z,99930.22
2023-01-30T08:23:27.908Z,99914.06
2023-01-30T08:25:58.099Z,99921.66
2023-01-30T08:28:28.523Z,99919.03
2023-01-30T08:31:05.630Z,99916.66
2023-01-30T08:33:35.620Z,99922.03
2023-01-30T08:36:05.605Z,99911.69
2023-01-30T08:38:38.250Z,99893.25
2023-01-30T08:41:09.733Z,99906.91
2023-01-30T08:43:39.828Z,99911.59
2023-01-30T08:46:09.999Z,99918.34
2023-01-30T08:48:49.677Z,99919.56
2023-01-30T08:51:20.298Z,99930.66
2023-01-30T08:53:52.857Z,99925.25
2023-01-30T08:56:25.559Z,99921.06
2023-01-30T08:58:55.893Z,99923.53
2023-01-30T09:01:28.331Z,99918.81
2023-01-30T09:03:58.370Z,99919.13
2023-01-30T09:06:28.371Z,99914.97
2023-01-30T09:09:01.876Z,99914.53
2023-01-30T09:11:31.874Z,99917.16
2023-01-30T09:14:01.832Z,99915.50
2023-01-30T09:16:31.859Z,99925.06
2023-01-30T09:19:01.821Z,99916.72
2023-01-30T09:21:32.141Z,99922.66
2023-01-30T09:24:04.721Z,99918.09
2023-01-30T09:26:34.845Z,99921.00
2023-01-30T09:29:04.944Z,99921.53
2023-01-30T09:31:35.175Z,99927.34
2023-01-30T09:34:05.128Z,99940.72
2023-01-30T09:36:35.199Z,99940.53
2023-01-30T09:39:07.690Z,99931.75
2023-01-30T09:42:02.576Z,99927.41
2023-01-30T09:44:58.313Z,99927.25
2023-01-30T09:47:38.800Z,99919.34
2023-01-30T09:50:26.675Z,99917.69
2023-01-30T09:53:01.132Z,99921.31
2023-01-30T09:55:36.669Z,99911.75
2023-01-30T09:58:24.570Z,99910.47
2023-01-30T10:00:58.049Z,99901.31
2023-01-30T10:03:36.504Z,99909.88
2023-01-30T10:06:10.391Z,99913.19
2023-01-30T10:08:53.386Z,99916.22
2023-01-30T10:11:54.331Z,99915.91
2023-01-30T10:14:42.173Z,99915.25
2023-01-30T10:17:27.223Z,99915.66
2023-01-30T10:20:19.636Z,99905.38
2023-01-30T10:23:02.725Z,99908.59
2023-01-30T10:25:39.528Z,99890.09
2023-01-30T10:28:18.894Z,99899.19
2023-01-30T10:30:51.383Z,99899.56
2023-01-30T10:33:29.347Z,99891.66
2023-01-30T10:36:08.199Z,99894.13
2023-01-30T10:38:45.112Z,99883.38
2023-01-30T10:41:25.509Z,99890.19
2023-01-30T10:44:04.911Z,99882.72
2023-01-30T10:46:58.678Z,99881.56
2023-01-30T10:49:39.677Z,99889.03
2023-01-30T10:52:24.381Z,99884.13
2023-01-30T10:55:19.907Z,99882.19
2023-01-30T10:57:58.580Z,99882.84
2023-01-30T11:00:38.733Z,99872.25
2023-01-30T11:03:24.051Z,99870.91
2023-01-30T11:05:56.571Z,99865.75
2023-01-30T11:08:29.463Z,99870.34
2023-01-30T11:11:00.837Z,99870.16
2023-01-30T11:13:33.277Z,99866.00
2023-01-30T11:16:09.646Z,99868.81
2023-01-30T11:19:18.937Z,99846.56
2023-01-30T11:21:44.774Z,99844.75
2023-01-30T11:24:20.444Z,99836.84
2023-01-30T11:26:52.453Z,99834.19
2023-01-30T11:29:31.950Z,99836.22
2023-01-30T11:32:09.154Z,99827.25
2023-01-30T11:34:39.260Z,99817.84
2023-01-30T11:37:17.804Z,99811.59
2023-01-30T11:39:54.239Z,99818.28
2023-01-30T11:42:34.463Z,99785.00
2023-01-30T11:45:17.370Z,99799.50
2023-01-30T11:47:59.209Z,99806.25
2023-01-30T11:50:44.659Z,99806.41
2023-01-30T11:53:29.553Z,99806.56
2023-01-30T11:56:07.283Z,99792.31
2023-01-30T11:58:42.425Z,99788.41
2023-01-30T12:01:13.788Z,99782.50
2023-01-30T12:03:54.021Z,99790.22
2023-01-30T12:06:31.711Z,99779.69
2023-01-30T12:09:02.162Z,99806.34
2023-01-30T12:11:45.177Z,99770.88
2023-01-30T12:14:31.084Z,99796.78
2023-01-30T12:17:07.739Z,99778.97
2023-01-30T12:19:49.756Z,99767.59
2023-01-30T12:22:27.208Z,99769.22
2023-01-30T12:25:16.383Z,99766.28
2023-01-30T12:30:36.036Z,99763.13
2023-01-30T12:33:08.332Z,99766.22
2023-01-30T12:35:54.213Z,99763.47
2023-01-30T12:38:35.069Z,99761.38
2023-01-30T12:41:25.045Z,99757.84
2023-01-30T12:44:08.141Z,99752.69
2023-01-30T12:46:54.256Z,99757.31
2023-01-30T12:50:00.678Z,99752.22
2023-01-30T12:53:05.946Z,99742.50
2023-01-30T12:55:45.073Z,99740.34
2023-01-30T12:58:20.497Z,99736.84
2023-01-30T13:01:04.000Z,99735.34
2023-01-30T13:03:41.623Z,99743.25
2023-01-30T13:06:27.105Z,99734.22
2023-01-30T13:09:13.252Z,99736.56
2023-01-30T13:12:00.236Z,99740.63
2023-01-30T13:14:38.999Z,99746.50
2023-01-30T13:17:23.304Z,99746.13
2023-01-30T13:19:57.983Z,99736.84
2023-01-30T13:22:37.503Z,99728.97
2023-01-30T13:25:22.735Z,99734.63
2023-01-30T13:28:03.236Z,99737.44
2023-01-30T13:30:34.687Z,99725.72
2023-01-30T13:33:11.634Z,99721.63
2023-01-30T13:35:48.104Z,99724.25
2023-01-30T13:38:23.310Z,99706.09
2023-01-30T13:41:00.192Z,99701.16
2023-01-30T13:43:34.304Z,99703.97
2023-01-30T13:46:07.567Z,99693.25
2023-01-30T13:48:57.513Z,99693.75
2023-01-30T13:51:40.725Z,99676.41
2023-01-30T13:54:23.495Z,99687.97
2023-01-30T13:56:59.892Z,99704.09
2023-01-30T13:59:52.456Z,99704.25
2023-01-30T14:02:24.805Z,99710.00
2023-01-30T14:04:55.844Z,99717.53
2023-01-30T14:07:30.399Z,99715.59
2023-01-30T14:10:20.691Z,99735.69
2023-01-30T14:12:56.456Z,99741.50
2023-01-30T14:15:32.089Z,99751.38
2023-01-30T14:18:06.179Z,99762.41
2023-01-30T14:20:40.320Z,99761.59
2023-01-30T14:23:24.534Z,99774.09
2023-01-30T14:25:56.589Z,99776.19
2023-01-30T14:28:50.901Z,99779.59
2023-01-30T14:31:54.399Z,99793.16
2023-01-30T14:34:42.651Z,99808.13
2023-01-30T14:37:30.731Z,99820.47
2023-01-30T14:40:03.673Z,99814.34
2023-01-30T14:42:34.373Z,99819.91
2023-01-30T14:45:43.263Z,99828.22
2023-01-30T14:48:32.186Z,99836.72
2023-01-30T14:51:22.038Z,99825.03
2023-01-30T14:53:56.381Z,99838.00
2023-01-30T14:56:42.496Z,99832.91
2023-01-30T14:59:22.242Z,99844.03
2023-01-30T15:02:06.130Z,99838.41
2023-01-30T15:04:42.301Z,99845.31
2023-01-30T15:07:16.054Z,99843.97
2023-01-30T15:09:53.947Z,99851.34
2023-01-30T15:12:55.682Z,99854.00
2023-01-30T15:15:32.361Z,99863.03
2023-01-30T15:18:33.574Z,99852.50
2023-01-30T15:21:37.411Z,99858.59
2023-01-30T15:24:23.147Z,99854.91
2023-01-30T15:27:00.843Z,99868.06
2023-01-30T15:30:19.757Z,99883.78
2023-01-30T15:32:52.716Z,99883.25
2023-01-30T15:35:31.036Z,99889.81
2023-01-30T15:38:01.115Z,99883.19
2023-01-30T15:40:33.473Z,99887.91
2023-01-30T15:43:30.589Z,99894.69
2023-01-30T15:46:14.946Z,99888.28
2023-01-30T15:48:57.880Z,99898.59
2023-01-30T15:51:33.371Z,99910.78
2023-01-30T15:54:06.454Z,99904.56
2023-01-30T15:56:36.686Z,99907.50
2023-01-30T15:59:06.724Z,99893.66
2023-01-30T16:01:37.132Z,99909.16
2023-01-30T16:04:08.326Z,99906.66
2023-01-30T16:06:41.201Z,99900.88
2023-01-30T16:09:22.392Z,99908.53
2023-01-30T16:11:52.720Z,99906.94
2023-01-30T16:14:24.824Z,99918.28
2023-01-30T16:16:59.008Z,99935.72
2023-01-30T16:19:31.974Z,99927.69
2023-01-30T16:22:08.289Z,99931.13
2023-01-30T16:24:41.887Z,99928.06
2023-01-30T16:27:21.476Z,99933.41
2023-01-30T16:29:57.745Z,99947.47
2023-01-30T16:32:33.811Z,99945.41
2023-01-30T16:35:24.011Z,99945.13
2023-01-30T16:38:05.567Z,99958.66
2023-01-30T16:40:53.429Z,99947.47
2023-01-30T16:43:27.255Z,99964.53
2023-01-30T16:46:49.486Z,99963.28
2023-01-30T16:49:25.497Z,99974.63
2023-01-30T16:52:08.335Z,99978.91
2023-01-30T16:54:49.761Z,99973.66
2023-01-30T16:57:36.050Z,99984.31
2023-01-30T17:00:13.739Z,99985.03
2023-01-30T17:02:54.380Z,99975.78
2023-01-30T17:05:30.824Z,99982.94
2023-01-30T17:08:01.585Z,100011.34
2023-01-30T17:11:00.379Z,100017.88
2023-01-30T17:13:37.736Z,100027.16
2023-01-30T17:16:32.388Z,100023.13
2023-01-30T17:19:02.957Z,100024.50
2023-01-30T17:21:40.912Z,100030.97
2023-01-30T17:24:18.165Z,100050.66
2023-01-30T17:27:01.015Z,100028.63
2023-01-30T17:29:42.831Z,100043.31
2023-01-30T17:32:19.215Z,100036.09
2023-01-30T17:34:49.770Z,100053.97
2023-01-30T17:37:27.214Z,100057.41
2023-01-30T17:39:57.356Z,100059.75
2023-01-30T17:42:35.887Z,100064.97
2023-01-30T17:45:12.778Z,100075.66
2023-01-30T17:47:42.936Z,100071.88
2023-01-30T17:50:17.637Z,100084.47
2023-01-30T17:52:49.447Z,100090.41
2023-01-30T17:55:22.218Z,100078.91
2023-01-30T17:58:06.291Z,100098.00
2023-01-30T18:00:39.377Z,100095.38
2023-01-30T18:03:09.332Z,100097.31
2023-01-30T18:05:39.545Z,100117.56
2023-01-30T18:08:10.731Z,100115.75
2023-01-30T18:10:40.748Z,100121.00
2023-01-30T18:13:13.333Z,100129.06
2023-01-30T18:15:43.370Z,100125.31
2023-01-30T18:18:16.137Z,100131.84
2023-01-30T18:20:49.713Z,100138.16
2023-01-30T18:23:20.731Z,100141.50
2023-01-30T18:25:51.015Z,100151.47
2023-01-30T18:28:23.695Z,100157.56
2023-01-30T18:30:53.697Z,100146.19
2023-01-30T18:33:23.740Z,100152.00
2023-01-30T18:35:54.976Z,100161.41
2023-01-30T18:38:28.095Z,100164.03
2023-01-30T18:41:02.210Z,100166.25
2023-01-30T18:43:35.128Z,100176.47
2023-01-30T18:46:08.870Z,100188.53
2023-01-30T18:48:39.532Z,100176.13
2023-01-30T18:51:11.856Z,100184.56
2023-01-30T18:53:42.465Z,100193.47
2023-01-30T18:56:17.323Z,100200.81
2023-01-30T18:58:52.297Z,100199.31
2023-01-30T19:01:27.385Z,100208.31
2023-01-30T19:03:58.322Z,100208.88
2023-01-30T19:06:29.635Z,100220.47
2023-01-30T19:09:04.450Z,100235.44
2023-01-30T19:11:47.209Z,100225.06
2023-01-30T19:14:19.789Z,100236.56
2023-01-30T19:16:51.313Z,100241.84
2023-01-30T19:19:22.915Z,100245.31
2023-01-30T19:21:56.560Z,100268.03
2023-01-30T19:24:26.766Z,100248.63
2023-01-30T19:26:56.790Z,100275.94
2023-01-30T19:29:29.504Z,100276.75
2023-01-30T19:32:01.528Z,100284.50
2023-01-30T19:34:31.673Z,100275.78
2023-01-30T19:37:01.665Z,100295.06
2023-01-30T19:39:31.636Z,100310.72
2023-01-30T19:42:01.574Z,100307.09
2023-01-30T19:44:34.187Z,100318.75
2023-01-30T19:47:04.284Z,100325.13
2023-01-30T19:49:35.949Z,100320.00
2023-01-30T19:52:07.050Z,100316.56
2023-01-30T19:54:37.454Z,100326.53
2023-01-30T19:57:07.409Z,100319.63
2023-01-30T19:59:40.830Z,100338.19
2023-01-30T20:02:13.412Z,100338.75
2023-01-30T20:04:45.704Z,100354.16
2023-01-30T20:07:15.679Z,100345.56
2023-01-30T20:09:45.877Z,100336.56
2023-01-30T20:12:15.853Z,100358.72
2023-01-30T20:14:48.409Z,100368.81
2023-01-30T20:17:18.333Z,100369.50
2023-01-30T20:19:48.311Z,100368.09
2023-01-30T20:22:18.393Z,100378.63
2023-01-30T20:24:48.457Z,100384.19
2023-01-30T20:27:18.704Z,100371.59
2023-01-30T20:29:51.310Z,100383.66
2023-01-30T20:32:21.268Z,100386.56
2023-01-30T20:34:51.301Z,100393.09
2023-01-30T20:37:21.321Z,100394.06
2023-01-30T20:39:51.372Z,100419.69
2023-01-30T20:42:21.754Z,100407.22
2023-01-30T20:44:54.315Z,100401.81
2023-01-30T20:47:24.271Z,100396.00
2023-01-30T20:49:54.222Z,100410.53
2023-01-30T20:52:24.321Z,100415.50
2023-01-30T20:54:55.075Z,100424.66
2023-01-30T20:57:25.248Z,100419.66
2023-01-30T20:59:57.825Z,100426.59
2023-01-30T21:02:28.604Z,100428.53
2023-01-30T21:04:58.606Z,100442.09
2023-01-30T21:07:28.541Z,100447.34
2023-01-30T21:09:59.065Z,100446.81
2023-01-30T21:12:32.078Z,100459.56
2023-01-30T21:15:07.565Z,100457.75
2023-01-30T21:17:38.429Z,100463.16
2023-01-30T21:20:09.178Z,100465.38
2023-01-30T21:22:39.256Z,100460.25
2023-01-30T21:25:10.149Z,100468.81
2023-01-30T21:27:40.792Z,100481.69
2023-01-30T21:30:15.184Z,100495.13
2023-01-30T21:32:47.218Z,100496.22
2023-01-30T21:35:18.041Z,100506.06
2023-01-30T21:38:00.579Z,100503.16
2023-01-30T21:40:42.926Z,100515.22
2023-01-30T21:43:18.847Z,100520.34
2023-01-30T21:45:51.477Z,100516.63
2023-01-30T21:48:21.500Z,100525.34
2023-01-30T21:50:51.610Z,100531.31
2023-01-30T21:53:21.561Z,100526.88
2023-01-30T21:55:52.954Z,100541.97
2023-01-30T21:58:23.085Z,100556.38
2023-01-30T22:00:55.708Z,100561.34
2023-01-30T22:03:29.220Z,100569.38
2023-01-30T22:05:59.240Z,100567.59
2023-01-30T22:08:29.232Z,100576.75
2023-01-30T22:11:10.402Z,100583.41
2023-01-30T22:13:42.367Z,100585.63
2023-01-30T22:16:17.324Z,100581.88
2023-01-30T22:18:48.053Z,100582.84
2023-01-30T22:21:19.590Z,100585.28
2023-01-30T22:23:53.309Z,100583.13
2023-01-30T22:26:25.328Z,100574.69
2023-01-30T22:28:58.158Z,100576.56
2023-01-30T22:31:34.725Z,100599.00
2023-01-30T22:34:05.838Z,100602.38
2023-01-30T22:36:37.672Z,100601.66
2023-01-30T22:39:08.469Z,100609.16
2023-01-30T22:41:38.714Z,100619.13
2023-01-30T22:44:11.816Z,100623.25
2023-01-30T22:46:44.634Z,100636.63
2023-01-30T22:49:14.543Z,100627.31
2023-01-30T22:51:45.002Z,100623.72
2023-01-30T22:54:18.270Z,100604.69
2023-01-30T22:56:49.566Z,100619.88
2023-01-30T22:59:19.543Z,100629.22
2023-01-30T23:01:53.518Z,100632.25
2023-01-30T23:04:25.870Z,100641.25
2023-01-30T23:06:56.571Z,100652.28
2023-01-30T23:09:26.898Z,100638.81
2023-01-30T23:12:12.148Z,100646.13
2023-01-30T23:14:43.015Z,100648.78
2023-01-30T23:17:28.402Z,100637.13
2023-01-30T23:19:58.731Z,100630.00
2023-01-30T23:22:28.708Z,100642.00
2023-01-30T23:24:58.653Z,100648.72
2023-01-30T23:27:28.666Z,100645.59
2023-01-30T23:29:58.588Z,100655.78
2023-01-30T23:32:31.443Z,100660.44
2023-01-30T23:35:02.043Z,100664.88
2023-01-30T23:37:44.536Z,100654.47
2023-01-30T23:40:15.392Z,100675.75
2023-01-30T23:42:45.339Z,100660.47
2023-01-30T23:45:15.396Z,100668.72
2023-01-30T23:47:48.188Z,100662.53
2023-01-30T23:50:18.297Z,100667.44
2023-01-30T23:52:48.249Z,100667.19
2023-01-30T23:55:18.676Z,100660.41
2023-01-30T23:57:48.731Z,100671.38
